createdAt,value
2022-09-09T00:00:15.172Z,64.30
2022-09-09T00:05:30.113Z,63.90
2022-09-09T00:10:40.557Z,63.10
2022-09-09T00:15:57.904Z,63.60
2022-09-09T00:21:09.413Z,63.70
2022-09-09T00:26:21.461Z,64.10
2022-09-09T00:31:32.568Z,64.20
2022-09-09T00:36:38.854Z,64.00
2022-09-09T00:42:09.441Z,63.10
2022-09-09T00:47:40.308Z,63.60
2022-09-09T00:53:00.113Z,63.60
2022-09-09T00:58:03.624Z,63.80
2022-09-09T01:03:37.250Z,63.50
2022-09-09T01:09:18.122Z,63.50
2022-09-09T01:14:40.889Z,63.60
2022-09-09T01:20:06.943Z,63.80
2022-09-09T01:26:33.168Z,63.30
2022-09-09T01:31:44.184Z,62.90
2022-09-09T01:36:55.687Z,63.60
2022-09-09T01:42:00.887Z,64.00
2022-09-09T01:47:06.273Z,64.00
2022-09-09T01:52:10.373Z,64.50
2022-09-09T01:57:25.730Z,63.70
2022-09-09T02:02:35.579Z,63.70
2022-09-09T02:07:51.921Z,63.40
2022-09-09T02:13:14.887Z,62.80
2022-09-09T02:18:28.547Z,63.30
2022-09-09T02:23:33.069Z,62.10
2022-09-09T02:28:43.150Z,63.10
2022-09-09T02:33:53.626Z,63.40
2022-09-09T02:38:57.452Z,62.70
2022-09-09T02:44:13.119Z,63.00
2022-09-09T02:49:25.856Z,62.80
2022-09-09T02:54:32.624Z,62.00
2022-09-09T02:59:42.766Z,62.80
2022-09-09T03:04:51.763Z,62.80
2022-09-09T03:09:55.992Z,62.80
2022-09-09T03:15:04.054Z,63.10
2022-09-09T03:20:10.214Z,63.00
2022-09-09T03:25:15.242Z,63.00
2022-09-09T03:30:20.848Z,62.70
2022-09-09T03:35:26.225Z,62.60
2022-09-09T03:40:29.713Z,62.50
2022-09-09T03:45:34.941Z,64.00
2022-09-09T03:50:38.506Z,62.90
2022-09-09T03:55:42.523Z,63.00
2022-09-09T04:00:57.447Z,63.50
2022-09-09T04:06:04.470Z,62.90
2022-09-09T04:11:09.664Z,62.90
2022-09-09T04:16:16.652Z,62.80
2022-09-09T04:21:22.342Z,62.40
2022-09-09T04:26:26.243Z,62.40
2022-09-09T04:31:31.781Z,62.20
2022-09-09T04:36:35.552Z,62.40
2022-09-09T04:41:41.754Z,62.60
2022-09-09T04:46:48.723Z,63.00
2022-09-09T04:51:52.879Z,62.40
2022-09-09T04:56:56.893Z,62.90
2022-09-09T05:02:02.646Z,62.80
2022-09-09T05:07:07.608Z,62.60
2022-09-09T05:12:12.113Z,63.10
2022-09-09T05:17:22.415Z,62.80
2022-09-09T05:22:25.955Z,63.00
2022-09-09T05:27:32.418Z,62.80
2022-09-09T05:32:38.293Z,62.40
2022-09-09T05:37:41.899Z,63.00
2022-09-09T05:42:45.548Z,63.10
2022-09-09T05:47:55.637Z,63.60
2022-09-09T05:53:00.132Z,62.90
2022-09-09T05:58:03.875Z,62.80
2022-09-09T06:03:08.922Z,62.50
2022-09-09T06:08:12.760Z,62.80
2022-09-09T06:13:16.308Z,62.70
2022-09-09T06:18:21.608Z,62.50
2022-09-09T06:23:25.727Z,63.10
2022-09-09T06:28:29.654Z,62.30
2022-09-09T06:33:37.626Z,62.50
2022-09-09T06:38:41.173Z,62.40
2022-09-09T06:43:45.022Z,62.40
2022-09-09T06:48:51.553Z,62.50
2022-09-09T06:53:58.002Z,62.90
2022-09-09T06:59:05.028Z,62.90
2022-09-09T07:04:12.401Z,61.30
2022-09-09T07:09:19.095Z,60.90
2022-09-09T07:14:25.585Z,60.90
2022-09-09T07:19:37.932Z,60.60
2022-09-09T07:24:42.742Z,60.60
2022-09-09T07:29:46.670Z,60.70
2022-09-09T07:34:52.305Z,60.90
2022-09-09T07:39:56.211Z,61.20
2022-09-09T07:45:00.442Z,60.50
2022-09-09T07:50:06.690Z,60.50
2022-09-09T07:55:10.414Z,60.60
2022-09-09T08:00:17.138Z,60.80
2022-09-09T08:05:27.875Z,61.70
2022-09-09T08:10:32.319Z,62.40
2022-09-09T08:15:36.935Z,62.30
2022-09-09T08:20:43.254Z,62.10
2022-09-09T08:25:47.220Z,62.70
2022-09-09T08:30:52.210Z,62.50
2022-09-09T08:35:57.206Z,62.40
2022-09-09T08:41:52.741Z,62.60
2022-09-09T08:47:07.392Z,62.90
2022-09-09T08:52:19.826Z,63.20
2022-09-09T08:57:28.711Z,63.00
2022-09-09T09:02:47.081Z,63.40
2022-09-09T09:08:10.219Z,63.50
2022-09-09T09:13:22.581Z,63.50
2022-09-09T09:18:30.241Z,63.90
2022-09-09T09:23:47.732Z,63.60
2022-09-09T09:28:51.263Z,63.70
2022-09-09T09:33:59.251Z,63.70
2022-09-09T09:44:38.175Z,63.60
2022-09-09T09:49:56.336Z,63.70
2022-09-09T09:55:08.169Z,63.60
2022-09-09T10:00:19.895Z,63.80
2022-09-09T10:05:36.311Z,63.90
2022-09-09T10:11:34.519Z,64.10
2022-09-09T10:17:01.719Z,64.30
2022-09-09T10:22:17.852Z,64.30
2022-09-09T10:27:34.835Z,64.30
2022-09-09T10:32:52.222Z,64.40
2022-09-09T10:38:19.495Z,64.50
2022-09-09T10:43:41.711Z,64.40
2022-09-09T10:49:08.733Z,64.50
2022-09-09T10:54:45.908Z,64.60
2022-09-09T10:59:58.443Z,64.80
2022-09-09T11:05:11.214Z,64.50
2022-09-09T11:10:28.168Z,64.60
2022-09-09T11:15:41.926Z,64.50
2022-09-09T11:20:47.168Z,64.40
2022-09-09T11:25:56.914Z,64.50
2022-09-09T11:31:27.374Z,64.40
2022-09-09T11:37:07.924Z,64.30
2022-09-09T11:42:21.313Z,64.40
2022-09-09T11:47:32.381Z,64.50
2022-09-09T11:52:46.731Z,64.50
2022-09-09T11:57:50.172Z,64.50
2022-09-09T12:02:56.052Z,64.60
2022-09-09T12:08:01.594Z,64.70
2022-09-09T12:13:20.366Z,65.00
2022-09-09T12:18:28.232Z,64.80
2022-09-09T12:23:44.535Z,64.80
2022-09-09T12:29:07.816Z,64.80
2022-09-09T12:34:20.136Z,64.90
2022-09-09T12:39:34.877Z,64.70
2022-09-09T12:44:38.416Z,64.70
2022-09-09T12:49:44.726Z,64.70
2022-09-09T12:54:52.214Z,64.70
2022-09-09T13:00:12.438Z,64.60
2022-09-09T13:05:22.203Z,64.50
2022-09-09T13:10:36.718Z,64.60
2022-09-09T13:15:55.080Z,64.70
2022-09-09T13:21:01.097Z,64.50
2022-09-09T13:26:08.720Z,65.20
2022-09-09T13:31:28.096Z,64.60
2022-09-09T13:36:36.379Z,64.20
2022-09-09T13:41:47.337Z,64.20
2022-09-09T13:47:09.976Z,64.00
2022-09-09T13:52:18.977Z,63.90
2022-09-09T13:57:26.216Z,63.60
2022-09-09T14:02:29.790Z,63.60
2022-09-09T14:07:34.873Z,63.50
2022-09-09T14:12:38.377Z,63.30
2022-09-09T14:17:41.802Z,63.30
2022-09-09T14:22:46.971Z,63.30
2022-09-09T14:27:52.308Z,63.30
2022-09-09T14:32:55.728Z,63.20
2022-09-09T14:38:02.003Z,63.00
2022-09-09T14:43:06.962Z,62.90
2022-09-09T14:48:10.378Z,62.90
2022-09-09T14:53:15.170Z,62.90
2022-09-09T14:58:18.586Z,62.80
2022-09-09T15:03:23.044Z,62.60
2022-09-09T15:08:28.095Z,63.30
2022-09-09T15:13:31.847Z,62.40
2022-09-09T15:18:37.017Z,62.50
2022-09-09T15:23:42.027Z,62.00
2022-09-09T15:28:48.368Z,62.80
2022-09-09T15:33:54.664Z,64.30
2022-09-09T15:39:00.620Z,63.80
2022-09-09T15:44:04.768Z,63.90
2022-09-09T15:49:11.796Z,64.40
2022-09-09T15:54:21.785Z,65.40
2022-09-09T15:59:27.275Z,65.60
2022-09-09T16:04:32.173Z,65.60
2022-09-09T16:09:38.003Z,65.00
2022-09-09T16:14:41.794Z,65.10
2022-09-09T16:19:46.827Z,64.90
2022-09-09T16:24:51.889Z,64.70
2022-09-09T16:29:55.569Z,63.80
2022-09-09T16:34:59.021Z,64.00
2022-09-09T16:40:06.316Z,63.70
2022-09-09T16:45:11.561Z,64.30
2022-09-09T16:50:15.183Z,64.20
2022-09-09T16:55:21.459Z,64.20
2022-09-09T17:00:25.425Z,64.40
2022-09-09T17:05:28.942Z,64.80
2022-09-09T17:10:34.172Z,64.70
2022-09-09T17:15:43.842Z,65.10
2022-09-09T17:20:47.497Z,64.90
2022-09-09T17:26:00.979Z,64.90
2022-09-09T17:31:07.176Z,64.80
2022-09-09T17:36:14.468Z,64.40
2022-09-09T17:41:22.137Z,64.30
2022-09-09T17:46:29.346Z,64.10
2022-09-09T17:51:35.199Z,64.20
2022-09-09T17:56:42.205Z,64.00
2022-09-09T18:01:49.486Z,63.90
2022-09-09T18:06:55.674Z,63.80
2022-09-09T18:12:01.874Z,63.80
2022-09-09T18:17:06.293Z,64.10
2022-09-09T18:22:09.733Z,65.30
2022-09-09T18:27:14.543Z,67.50
2022-09-09T18:32:20.026Z,68.80
2022-09-09T18:37:23.502Z,69.00
2022-09-09T18:42:28.379Z,68.80
2022-09-09T18:47:31.822Z,68.80
2022-09-09T18:52:35.789Z,68.90
2022-09-09T18:57:41.324Z,68.90
2022-09-09T19:02:44.774Z,69.00
2022-09-09T19:07:48.294Z,68.90
2022-09-09T19:12:53.130Z,68.70
2022-09-09T19:17:56.938Z,68.80
2022-09-09T19:23:00.785Z,68.60
2022-09-09T19:28:06.120Z,68.30
2022-09-09T19:33:09.584Z,68.00
2022-09-09T19:38:13.049Z,67.80
2022-09-09T19:43:17.978Z,67.70
2022-09-09T19:48:21.718Z,67.40
2022-09-09T19:53:25.209Z,67.60
2022-09-09T19:58:30.596Z,67.70
2022-09-09T20:03:34.274Z,67.60
2022-09-09T20:08:40.191Z,67.70
2022-09-09T20:13:46.063Z,67.70
2022-09-09T20:18:52.664Z,67.80
2022-09-09T20:23:56.982Z,67.80
2022-09-09T20:29:04.801Z,67.80
2022-09-09T20:34:11.532Z,67.80
2022-09-09T20:39:18.193Z,67.90
2022-09-09T20:44:25.117Z,67.90
2022-09-09T20:49:30.264Z,67.90
2022-09-09T20:54:35.229Z,67.90
2022-09-09T20:59:41.558Z,68.00
2022-09-09T21:04:45.654Z,68.10
2022-09-09T21:09:49.141Z,68.10
2022-09-09T21:14:54.131Z,68.30
2022-09-09T21:19:57.627Z,68.50
2022-09-09T21:25:01.015Z,68.50
2022-09-09T21:30:07.246Z,68.70
2022-09-09T21:35:12.163Z,68.70
2022-09-09T21:46:14.333Z,68.90
2022-09-09T21:51:19.015Z,68.90
2022-09-09T21:56:23.669Z,68.90
2022-09-09T22:01:28.705Z,68.80
2022-09-09T22:06:32.373Z,68.90
2022-09-09T22:11:36.048Z,69.00
2022-09-09T22:16:41.004Z,69.10
2022-09-09T22:21:44.565Z,69.30
2022-09-09T22:26:48.386Z,69.60
2022-09-09T22:31:53.221Z,69.60
2022-09-09T22:36:57.017Z,69.60
2022-09-09T22:42:01.060Z,69.70
2022-09-09T22:47:06.464Z,69.80
2022-09-09T22:52:10.980Z,69.80
2022-09-09T22:57:14.537Z,70.00
2022-09-09T23:02:20.712Z,69.90
2022-09-09T23:07:24.230Z,69.80
2022-09-09T23:12:28.216Z,69.60
2022-09-09T23:17:34.413Z,69.70
2022-09-09T23:22:39.235Z,69.50
2022-09-09T23:27:42.855Z,69.50
2022-09-09T23:32:50.517Z,69.40
2022-09-09T23:37:54.273Z,69.00
2022-09-09T23:42:57.816Z,69.00
2022-09-09T23:48:03.532Z,69.10
2022-09-09T23:53:08.454Z,70.00
2022-09-09T23:58:12.338Z,69.50
